Time;durP1;ratioP1;P1;durP2;ratioP2;P2;SDS_P1;SDS_P2;PMS_P1;PMS_P2;Temp;Humidity;BMP_temperature;BMP_pressure;BME280_temperature;BME280_humidity;BME280_pressure;Samples;Min_cycle;Max_cycle;Signal;HPM_P1;HPM_P2
2022/08/02 00:02:18;;;;;;;1.13;1.02;;;;;;;-143.85;100.00;70650.75;5094649;28;20535;-81
2022/08/02 00:04:44;;;;;;;0.90;0.90;;;;;;;-143.85;100.00;70650.75;5094475;28;20030;-83
2022/08/02 00:07:09;;;;;;;0.85;0.85;;;;;;;-143.85;100.00;70650.75;5095024;28;20114;-82
2022/08/02 00:09:35;;;;;;;1.30;1.15;;;;;;;-143.85;100.00;70650.75;5094408;28;20115;-81
2022/08/02 00:12:00;;;;;;;1.15;1.05;;;;;;;-143.85;100.00;70650.75;5094451;28;20169;-82
2022/08/02 00:14:26;;;;;;;1.58;0.93;;;;;;;-143.85;100.00;70650.75;5095623;28;20027;-82
2022/08/02 00:16:51;;;;;;;0.82;0.80;;;;;;;-143.85;100.00;70650.75;5094276;28;20081;-82
2022/08/02 00:19:17;;;;;;;1.85;1.20;;;;;;;-143.85;100.00;70650.75;5094032;28;20035;-81
2022/08/02 00:21:42;;;;;;;0.95;0.75;;;;;;;-143.85;100.00;70650.75;5094212;28;20028;-82
2022/08/02 00:24:08;;;;;;;0.98;0.90;;;;;;;-143.85;100.00;70650.75;5094759;28;20024;-83
2022/08/02 00:26:33;;;;;;;1.73;0.93;;;;;;;-143.85;100.00;70650.75;5094293;28;20050;-82
2022/08/02 00:28:58;;;;;;;1.25;1.13;;;;;;;-143.85;100.00;70650.75;5094082;28;20050;-82
2022/08/02 00:31:24;;;;;;;0.90;0.73;;;;;;;-143.85;100.00;70650.75;5094031;28;20043;-82
2022/08/02 00:33:49;;;;;;;1.20;0.98;;;;;;;-143.85;100.00;70650.75;5093963;28;20016;-82
2022/08/02 00:36:15;;;;;;;0.98;0.90;;;;;;;-143.85;100.00;70650.75;5095260;28;20380;-82
2022/08/02 00:38:41;;;;;;;1.95;1.20;;;;;;;-143.85;100.00;70650.75;5093997;28;20024;-81
2022/08/02 00:41:12;;;;;;;2.00;1.30;;;;;;;-143.85;100.00;70650.75;5093895;28;20016;-82
2022/08/02 00:43:38;;;;;;;2.83;1.00;;;;;;;-143.85;100.00;70650.75;5093887;28;20106;-82
2022/08/02 00:46:03;;;;;;;0.98;0.98;;;;;;;-143.85;100.00;70650.75;5093939;28;20118;-82
2022/08/02 00:48:29;;;;;;;1.05;1.00;;;;;;;-143.85;100.00;70650.75;5093763;28;20495;-82
2022/08/02 00:50:55;;;;;;;1.80;0.60;;;;;;;-143.85;100.00;70650.75;5093718;28;20028;-82
2022/08/02 00:53:21;;;;;;;1.30;1.17;;;;;;;-143.85;100.00;70650.75;5094245;28;20028;-82
2022/08/02 00:55:47;;;;;;;1.80;1.45;;;;;;;-143.85;100.00;70650.75;5093613;28;20407;-82
2022/08/02 00:58:12;;;;;;;1.10;1.00;;;;;;;-143.85;100.00;70650.75;5093135;28;20020;-81
2022/08/02 01:00:38;;;;;;;1.92;1.23;;;;;;;-143.85;100.00;70650.75;5093635;28;20023;-82
2022/08/02 01:03:03;;;;;;;1.17;1.08;;;;;;;-143.85;100.00;70650.75;5093412;28;20043;-82
2022/08/02 01:05:29;;;;;;;0.90;0.88;;;;;;;-143.85;100.00;70650.75;5093729;28;20027;-82
2022/08/02 01:07:54;;;;;;;1.85;0.95;;;;;;;-143.85;100.00;70650.75;5093569;28;20383;-82
2022/08/02 01:10:20;;;;;;;1.10;1.00;;;;;;;-143.85;100.00;70650.75;5093716;28;20028;-82
2022/08/02 01:12:46;;;;;;;1.27;1.15;;;;;;;-143.85;100.00;70650.75;5094698;28;20169;-82
2022/08/02 01:15:13;;;;;;;2.03;1.20;;;;;;;-143.85;100.00;70650.75;5093158;28;20079;-82
2022/08/02 01:17:45;;;;;;;0.98;0.93;;;;;;;-143.85;100.00;70650.75;5093138;28;20031;-82
2022/08/02 01:20:35;;;;;;;0.82;0.82;;;;;;;-143.85;100.00;70650.75;5093030;28;20016;-81
2022/08/02 01:23:34;;;;;;;1.00;0.93;;;;;;;-143.85;100.00;70650.75;5093152;28;20027;-81
2022/08/02 01:26:18;;;;;;;1.20;1.00;;;;;;;-143.85;100.00;70650.75;5092931;28;20058;-81
2022/08/02 01:29:21;;;;;;;1.02;0.93;;;;;;;-143.85;100.00;70650.75;5093559;28;20119;-81
2022/08/02 01:31:58;;;;;;;1.05;0.85;;;;;;;-143.85;100.00;70650.75;5094264;28;20499;-82
2022/08/02 01:34:46;;;;;;;0.90;0.73;;;;;;;-143.85;100.00;70650.75;5092551;28;20024;-81
2022/08/02 01:37:20;;;;;;;1.88;0.68;;;;;;;-143.85;100.00;70650.75;5061646;28;20369;-81
2022/08/02 01:39:54;;;;;;;0.70;0.70;;;;;;;-143.85;100.00;70650.75;5093029;28;20097;-82
2022/08/02 01:42:23;;;;;;;0.80;0.80;;;;;;;-143.85;100.00;70650.75;5092396;28;20489;-82
2022/08/02 01:44:52;;;;;;;1.23;0.70;;;;;;;-143.85;100.00;70650.75;5093819;28;20105;-82
2022/08/02 01:47:23;;;;;;;1.38;0.90;;;;;;;-143.85;100.00;70650.75;5092535;28;20040;-81
2022/08/02 01:49:51;;;;;;;4.35;2.03;;;;;;;-143.85;100.00;70650.75;5092829;28;20028;-81
2022/08/02 01:52:22;;;;;;;1.42;0.80;;;;;;;-143.85;100.00;70650.75;5092522;28;20031;-82
2022/08/02 01:54:58;;;;;;;1.10;1.00;;;;;;;-143.85;100.00;70650.75;5092640;28;20016;-81
2022/08/02 01:57:26;;;;;;;1.20;1.10;;;;;;;-143.85;100.00;70650.75;5092320;28;20477;-81
2022/08/02 01:59:56;;;;;;;3.60;1.00;;;;;;;-143.85;100.00;70650.75;5092367;28;20475;-81
2022/08/02 02:02:22;;;;;;;2.55;1.25;;;;;;;-143.85;100.00;70650.75;5092323;28;20032;-81
2022/08/02 02:04:50;;;;;;;1.20;1.10;;;;;;;-143.85;100.00;70650.75;5093487;28;20024;-81
2022/08/02 02:07:19;;;;;;;0.90;0.90;;;;;;;-143.85;100.00;70650.75;5092243;28;20071;-82
2022/08/02 02:09:45;;;;;;;2.58;1.33;;;;;;;-143.85;100.00;70650.75;5091208;28;20024;-81
2022/08/02 02:12:12;;;;;;;1.23;1.13;;;;;;;-143.85;100.00;70650.75;5092124;28;20059;-83
2022/08/02 02:14:39;;;;;;;0.82;0.80;;;;;;;-143.85;100.00;70650.75;5092204;28;20044;-81
2022/08/02 02:17:07;;;;;;;0.80;0.80;;;;;;;-143.85;100.00;70650.75;5093180;28;20440;-81
2022/08/02 02:19:35;;;;;;;1.23;0.95;;;;;;;-143.85;100.00;70650.75;5093212;28;20028;-81
2022/08/02 02:22:01;;;;;;;1.05;0.82;;;;;;;-143.85;100.00;70650.75;5093157;28;20111;-81
2022/08/02 02:24:26;;;;;;;0.85;0.85;;;;;;;-143.85;100.00;70650.75;5091841;28;20048;-81
2022/08/02 02:26:52;;;;;;;2.15;0.88;;;;;;;-143.85;100.00;70650.75;5091911;28;20020;-82
2022/08/02 02:29:24;;;;;;;0.90;0.82;;;;;;;-143.85;100.00;70650.75;5091876;28;20073;-81
2022/08/02 02:31:52;;;;;;;0.70;0.70;;;;;;;-143.85;100.00;70650.75;5093281;28;20023;-81
2022/08/02 02:34:24;;;;;;;;;;;;;;;-143.85;100.00;70650.75;5092133;28;20027;-81
2022/08/02 02:36:51;;;;;;;1.27;0.98;;;;;;;-143.85;100.00;70650.75;5091733;28;19908;-81
2022/08/02 02:39:21;;;;;;;3.58;1.67;;;;;;;-143.85;100.00;70650.75;5091436;28;20028;-81
2022/08/02 02:41:47;;;;;;;1.45;1.00;;;;;;;-143.85;100.00;70650.75;5091899;28;20020;-82
2022/08/02 02:44:17;;;;;;;1.10;0.88;;;;;;;-143.85;100.00;70650.75;5091559;28;20019;-82
2022/08/02 02:46:43;;;;;;;1.38;1.00;;;;;;;-143.85;100.00;70650.75;5091399;28;20016;-82
2022/08/02 02:49:13;;;;;;;1.17;1.08;;;;;;;-143.85;100.00;70650.75;5092864;28;20028;-81
2022/08/02 02:51:39;;;;;;;1.50;1.00;;;;;;;-143.85;100.00;70650.75;5091514;28;20066;-81
2022/08/02 02:54:06;;;;;;;4.85;0.90;;;;;;;-143.85;100.00;70650.75;5091567;28;20024;-81
2022/08/02 02:56:32;;;;;;;4.18;1.30;;;;;;;-143.85;100.00;70650.75;5091698;28;20081;-81
2022/08/02 02:58:59;;;;;;;3.83;1.08;;;;;;;-143.85;100.00;70650.75;5091475;28;20024;-82
2022/08/02 03:01:31;;;;;;;1.13;0.80;;;;;;;-143.85;100.00;70650.75;5092780;28;20027;-81
2022/08/02 03:04:00;;;;;;;1.35;0.95;;;;;;;-143.85;100.00;70650.75;5091344;28;20024;-81
2022/08/02 03:06:27;;;;;;;1.27;1.13;;;;;;;-143.85;100.00;70650.75;5091317;28;20027;-81
2022/08/02 03:08:53;;;;;;;1.20;1.20;;;;;;;-143.85;100.00;70650.75;5092529;28;20532;-82
2022/08/02 03:11:19;;;;;;;2.33;1.52;;;;;;;-143.85;100.00;70650.75;5091534;28;20031;-81
2022/08/02 03:13:45;;;;;;;1.55;1.45;;;;;;;-143.85;100.00;70650.75;5091459;28;20452;-81
2022/08/02 03:16:11;;;;;;;1.23;1.00;;;;;;;-143.85;100.00;70650.75;5092522;28;20020;-81
2022/08/02 03:18:42;;;;;;;1.50;1.02;;;;;;;-143.85;100.00;70650.75;5091484;28;20028;-81
2022/08/02 03:21:13;;;;;;;1.77;1.23;;;;;;;-143.85;100.00;70650.75;5094419;28;20032;-81
2022/08/02 03:23:39;;;;;;;0.90;0.90;;;;;;;-143.85;100.00;70650.75;5095861;28;20401;-81
2022/08/02 03:26:05;;;;;;;1.75;0.93;;;;;;;-143.85;100.00;70650.75;5095431;28;20051;-81
2022/08/02 03:28:31;;;;;;;1.27;1.05;;;;;;;-143.85;100.00;70650.75;5095149;28;20055;-82
2022/08/02 03:30:57;;;;;;;3.72;0.93;;;;;;;-143.85;100.00;70650.75;5095163;28;20084;-81
2022/08/02 03:33:24;;;;;;;0.95;0.88;;;;;;;-143.85;100.00;70650.75;5095372;28;20048;-81
2022/08/02 03:35:53;;;;;;;6.30;1.37;;;;;;;-143.85;100.00;70650.75;5095169;28;20024;-81
2022/08/02 03:38:22;;;;;;;1.77;1.23;;;;;;;-143.85;100.00;70650.75;5096384;28;20028;-81
2022/08/02 03:40:48;;;;;;;3.95;1.55;;;;;;;-143.85;100.00;70650.75;5094971;28;20024;-82
2022/08/02 03:43:15;;;;;;;1.85;1.20;;;;;;;-143.85;100.00;70650.75;5095030;28;20016;-81
2022/08/02 03:45:43;;;;;;;4.00;1.50;;;;;;;-143.85;100.00;70650.75;5094762;28;20024;-81
2022/08/02 03:48:10;;;;;;;3.80;1.33;;;;;;;-143.85;100.00;70650.75;5096034;28;20044;-81
2022/08/02 03:50:37;;;;;;;1.25;1.15;;;;;;;-143.85;100.00;70650.75;5094842;28;20120;-81
2022/08/02 03:53:03;;;;;;;4.97;1.23;;;;;;;-143.85;100.00;70650.75;5094664;28;20031;-81
2022/08/02 03:55:29;;;;;;;2.88;1.40;;;;;;;-143.85;100.00;70650.75;5094615;28;20456;-81
2022/08/02 03:57:55;;;;;;;2.67;1.65;;;;;;;-143.85;100.00;70650.75;5095872;28;20027;-81
2022/08/02 04:00:21;;;;;;;0.85;0.85;;;;;;;-143.85;100.00;70650.75;5094740;28;20023;-81
2022/08/02 04:02:47;;;;;;;6.68;1.67;;;;;;;-143.85;100.00;70650.75;5094617;28;20063;-81
2022/08/02 04:05:14;;;;;;;1.02;0.93;;;;;;;-143.85;100.00;70650.75;5094346;28;20051;-81
2022/08/02 04:07:39;;;;;;;0.77;0.77;;;;;;;-143.85;100.00;70650.75;5094559;28;20035;-81
2022/08/02 04:10:05;;;;;;;1.52;0.75;;;;;;;-143.85;100.00;70650.75;5094665;28;20077;-81
2022/08/02 04:12:31;;;;;;;0.73;0.73;;;;;;;-143.85;100.00;70650.75;5094382;28;20107;-81
2022/08/02 04:14:58;;;;;;;3.05;1.33;;;;;;;-143.85;100.00;70650.75;5094524;28;20182;-81
2022/08/02 04:17:24;;;;;;;0.75;0.75;;;;;;;-143.85;100.00;70650.75;5094480;28;20020;-81
2022/08/02 04:19:54;;;;;;;1.27;1.20;;;;;;;-143.85;100.00;70650.75;5095614;28;20030;-81
2022/08/02 04:22:26;;;;;;;0.57;0.57;;;;;;;-143.85;100.00;70650.75;5094496;28;20032;-81
2022/08/02 04:24:57;;;;;;;0.70;0.70;;;;;;;-143.85;100.00;70650.75;5094326;28;20077;-81
2022/08/02 04:27:23;;;;;;;1.60;0.90;;;;;;;-143.85;100.00;70650.75;5094240;28;20024;-81
2022/08/02 04:29:49;;;;;;;1.60;1.02;;;;;;;-143.85;100.00;70650.75;5094007;28;20570;-81
2022/08/02 04:32:16;;;;;;;1.30;0.90;;;;;;;-143.85;100.00;70650.75;5093171;28;20502;-81
2022/08/02 04:34:45;;;;;;;2.93;0.90;;;;;;;-143.85;100.00;70650.75;5095149;28;20063;-81
2022/08/02 04:37:12;;;;;;;1.98;0.77;;;;;;;-143.85;100.00;70650.75;5095154;28;20028;-81
2022/08/02 04:39:39;;;;;;;0.70;0.70;;;;;;;-143.85;100.00;70650.75;5093885;28;20028;-81
2022/08/02 04:42:05;;;;;;;1.83;0.97;;;;;;;-143.85;100.00;70650.75;5094068;28;20016;-82
2022/08/02 04:44:30;;;;;;;0.88;0.85;;;;;;;-143.85;100.00;70650.75;5093916;28;20016;-81
2022/08/02 04:46:58;;;;;;;0.90;0.55;;;;;;;-143.85;100.00;70650.75;5093551;28;20036;-81
2022/08/02 04:49:24;;;;;;;;;;;;;;;-143.85;100.00;70650.75;5094362;28;20024;-81
2022/08/02 04:51:49;;;;;;;1.08;0.98;;;;;;;-143.85;100.00;70650.75;5093667;28;19907;-81
2022/08/02 04:54:15;;;;;;;1.02;0.65;;;;;;;-143.85;100.00;70650.75;5093483;28;20030;-81
2022/08/02 04:56:41;;;;;;;1.10;1.00;;;;;;;-143.85;100.00;70650.75;5093599;28;20123;-81
2022/08/02 04:59:07;;;;;;;1.33;1.10;;;;;;;-143.85;100.00;70650.75;5093400;28;20059;-80
2022/08/02 05:01:34;;;;;;;0.60;0.60;;;;;;;-143.85;100.00;70650.75;5093023;28;20047;-80
2022/08/02 05:04:00;;;;;;;1.83;1.23;;;;;;;-143.85;100.00;70650.75;5093265;28;20030;-79
2022/08/02 05:06:25;;;;;;;0.95;0.70;;;;;;;-143.85;100.00;70650.75;5093415;28;20024;-79
2022/08/02 05:08:51;;;;;;;1.65;0.98;;;;;;;-143.85;100.00;70650.75;5093063;28;20063;-79
2022/08/02 05:11:16;;;;;;;6.55;1.27;;;;;;;-143.85;100.00;70650.75;5093631;28;20024;-80
2022/08/02 05:13:42;;;;;;;0.47;0.47;;;;;;;-143.85;100.00;70650.75;5093406;28;20016;-79
2022/08/02 05:16:07;;;;;;;0.60;0.60;;;;;;;-143.85;100.00;70650.75;5093132;28;20137;-80
2022/08/02 05:18:33;;;;;;;0.52;0.52;;;;;;;-143.85;100.00;70650.75;5093249;28;20031;-81
2022/08/02 05:20:58;;;;;;;0.65;0.65;;;;;;;-143.85;100.00;70650.75;5093131;28;20234;-81
2022/08/02 05:23:24;;;;;;;1.73;0.80;;;;;;;-143.85;100.00;70650.75;5092576;28;20074;-81
2022/08/02 05:25:49;;;;;;;0.60;0.60;;;;;;;-143.85;100.00;70650.75;5094467;28;20027;-81
2022/08/02 05:28:15;;;;;;;0.82;0.60;;;;;;;-143.85;100.00;70650.75;5092728;28;20026;-81
2022/08/02 05:30:41;;;;;;;0.50;0.50;;;;;;;-143.85;100.00;70650.75;5094220;28;20102;-81
2022/08/02 05:33:06;;;;;;;0.80;0.70;;;;;;;-143.85;100.00;70650.75;5092707;28;20103;-81
2022/08/02 05:35:32;;;;;;;1.08;1.02;;;;;;;-143.85;100.00;70650.75;5094005;28;20020;-81
2022/08/02 05:37:58;;;;;;;1.98;0.68;;;;;;;-143.85;100.00;70650.75;5093659;28;20020;-81
2022/08/02 05:40:23;;;;;;;0.68;0.50;;;;;;;-143.85;100.00;70650.75;5093659;28;20023;-81
2022/08/02 05:42:49;;;;;;;0.60;0.60;;;;;;;-143.85;100.00;70650.75;5092548;28;20541;-81
2022/08/02 05:45:14;;;;;;;1.25;0.80;;;;;;;-143.85;100.00;70650.75;5092505;28;20108;-82
2022/08/02 05:47:40;;;;;;;2.63;0.68;;;;;;;-143.85;100.00;70650.75;5092170;28;20533;-81
2022/08/02 05:50:07;;;;;;;9.68;1.17;;;;;;;-143.85;100.00;70650.75;5092587;28;20020;-82
2022/08/02 05:52:47;;;;;;;1.05;0.70;;;;;;;-143.85;100.00;70650.75;5093567;28;20080;-81
2022/08/02 05:55:17;;;;;;;0.80;0.80;;;;;;;-143.85;100.00;70650.75;5092708;28;20036;-81
2022/08/02 05:57:52;;;;;;;1.25;0.50;;;;;;;-143.85;100.00;70650.75;5093592;28;20434;-81
2022/08/02 06:00:19;;;;;;;0.52;0.52;;;;;;;-143.85;100.00;70650.75;5092473;28;20024;-81
2022/08/02 06:02:44;;;;;;;6.32;0.90;;;;;;;-143.85;100.00;70650.75;5092203;28;20525;-81
2022/08/02 06:05:11;;;;;;;2.15;0.70;;;;;;;-143.85;100.00;70650.75;5092081;28;20028;-81
2022/08/02 06:07:40;;;;;;;1.38;0.77;;;;;;;-143.85;100.00;70650.75;5092554;28;20035;-81
2022/08/02 06:10:07;;;;;;;1.40;0.93;;;;;;;-143.85;100.00;70650.75;5091885;28;20400;-81
2022/08/02 06:12:56;;;;;;;0.50;0.50;;;;;;;-143.85;100.00;70650.75;5092431;28;20031;-81
2022/08/02 06:15:21;;;;;;;1.20;0.77;;;;;;;-143.85;100.00;70650.75;5093203;28;20027;-80
2022/08/02 06:17:47;;;;;;;1.35;0.60;;;;;;;-143.85;100.00;70650.75;5091805;28;20106;-81
2022/08/02 06:20:14;;;;;;;0.50;0.50;;;;;;;-143.85;100.00;70650.75;5092070;28;20046;-81
2022/08/02 06:22:42;;;;;;;0.50;0.50;;;;;;;-143.85;100.00;70650.75;5093346;28;20039;-82
2022/08/02 06:25:10;;;;;;;0.52;0.50;;;;;;;-143.85;100.00;70650.75;5091682;28;20020;-81
2022/08/02 06:27:37;;;;;;;0.68;0.57;;;;;;;-143.85;100.00;70650.75;5091948;28;20035;-81
2022/08/02 06:30:04;;;;;;;0.77;0.40;;;;;;;-143.85;100.00;70650.75;5091564;28;20020;-82
2022/08/02 06:32:31;;;;;;;0.30;0.30;;;;;;;-143.85;100.00;70650.75;5092626;28;20182;-81
2022/08/02 06:34:56;;;;;;;0.63;0.63;;;;;;;-143.85;100.00;70650.75;5091584;28;20024;-79
2022/08/02 06:37:52;;;;;;;0.40;0.40;;;;;;;-143.85;100.00;70650.75;5091595;28;20020;-81
2022/08/02 06:40:39;;;;;;;0.63;0.63;;;;;;;-143.85;100.00;70650.75;5093065;28;20020;-81
2022/08/02 06:43:12;;;;;;;1.17;0.43;;;;;;;-143.85;100.00;70650.75;5091441;28;20016;-79
2022/08/02 06:45:38;;;;;;;1.10;0.98;;;;;;;-143.85;100.00;70650.75;5091471;28;20479;-81
2022/08/02 06:48:04;;;;;;;0.60;0.60;;;;;;;-143.85;100.00;70650.75;5092414;28;20540;-80
2022/08/02 06:50:30;;;;;;;0.75;0.75;;;;;;;-143.85;100.00;70650.75;5092536;28;20593;-80
2022/08/02 06:52:55;;;;;;;1.02;0.75;;;;;;;-143.85;100.00;70650.75;5091437;28;20016;-80
2022/08/02 06:55:21;;;;;;;0.60;0.32;;;;;;;-143.85;100.00;70650.75;5091197;28;20016;-77
2022/08/02 06:57:46;;;;;;;0.52;0.52;;;;;;;-143.85;100.00;70650.75;5091185;28;20016;-79
2022/08/02 07:00:12;;;;;;;1.20;0.90;;;;;;;-143.85;100.00;70650.75;5092387;28;20016;-78
2022/08/02 07:02:38;;;;;;;0.25;0.25;;;;;;;-143.85;100.00;70650.75;5091470;28;20012;-79
2022/08/02 07:05:05;;;;;;;0.60;0.43;;;;;;;-143.85;100.00;70650.75;5091302;28;20479;-79
2022/08/02 07:07:30;;;;;;;0.30;0.30;;;;;;;-143.85;100.00;70650.75;5091169;28;20177;-80
2022/08/02 07:09:58;;;;;;;2.70;0.50;;;;;;;-143.85;100.00;70650.75;5091109;28;20515;-79
2022/08/02 07:12:24;;;;;;;0.30;0.30;;;;;;;-143.85;100.00;70650.75;5091567;28;20105;-80
2022/08/02 07:14:50;;;;;;;0.80;0.38;;;;;;;-143.85;100.00;70650.75;5090943;28;20083;-82
2022/08/02 07:17:15;;;;;;;0.82;0.50;;;;;;;-143.85;100.00;70650.75;5091126;28;20024;-79
2022/08/02 07:19:41;;;;;;;0.45;0.40;;;;;;;-143.85;100.00;70650.75;5091081;28;20456;-80
2022/08/02 07:22:06;;;;;;;1.05;0.30;;;;;;;-143.85;100.00;70650.75;5090955;28;20077;-80
2022/08/02 07:24:32;;;;;;;0.20;0.20;;;;;;;-143.85;100.00;70650.75;5091228;28;20106;-78
2022/08/02 07:26:58;;;;;;;0.30;0.30;;;;;;;-143.85;100.00;70650.75;5091251;28;20031;-79
2022/08/02 07:29:24;;;;;;;0.50;0.50;;;;;;;-143.85;100.00;70650.75;5090900;28;20099;-80
2022/08/02 07:31:49;;;;;;;0.28;0.28;;;;;;;-143.85;100.00;70650.75;5091050;28;20115;-80
2022/08/02 07:34:14;;;;;;;0.63;0.60;;;;;;;-143.85;100.00;70650.75;5091198;28;20024;-79
2022/08/02 07:36:40;;;;;;;0.30;0.30;;;;;;;-143.85;100.00;70650.75;5092159;28;20016;-79
2022/08/02 07:39:05;;;;;;;0.65;0.47;;;;;;;-143.85;100.00;70650.75;5090842;28;20116;-80
2022/08/02 07:41:31;;;;;;;0.30;0.30;;;;;;;-143.85;100.00;70650.75;5090897;28;20066;-79
2022/08/02 07:43:56;;;;;;;0.63;0.40;;;;;;;-143.85;100.00;70650.75;5090852;28;20024;-80
2022/08/02 07:46:22;;;;;;;0.20;0.20;;;;;;;-143.85;100.00;70650.75;5090690;28;20016;-80
2022/08/02 07:48:47;;;;;;;0.50;0.40;;;;;;;-143.85;100.00;70650.75;5090561;28;20093;-79
2022/08/02 07:51:13;;;;;;;0.45;0.40;;;;;;;-143.85;100.00;70650.75;5090749;28;20476;-79
2022/08/02 07:53:39;;;;;;;0.35;0.32;;;;;;;-143.85;100.00;70650.75;5090594;28;20096;-80
2022/08/02 07:56:04;;;;;;;0.40;0.40;;;;;;;-143.85;100.00;70650.75;5090609;28;20479;-80
2022/08/02 07:58:30;;;;;;;0.57;0.50;;;;;;;-143.85;100.00;70650.75;5090884;28;20028;-80
2022/08/02 08:00:55;;;;;;;1.50;0.90;;;;;;;-143.85;100.00;70650.75;5090830;28;20497;-78
2022/08/02 08:03:20;;;;;;;0.43;0.43;;;;;;;-143.85;100.00;70650.75;5089985;28;20487;-81
2022/08/02 08:05:46;;;;;;;0.20;0.20;;;;;;;-143.85;100.00;70650.75;5090444;28;20024;-79
2022/08/02 08:08:12;;;;;;;0.20;0.20;;;;;;;-143.85;100.00;70650.75;5093128;28;20124;-80
2022/08/02 08:10:39;;;;;;;0.85;0.40;;;;;;;-143.85;100.00;70650.75;5103675;28;20107;-79
2022/08/02 08:13:05;;;;;;;;;;;;;;;-143.85;100.00;70650.75;5115116;28;20047;-79
2022/08/02 08:15:30;;;;;;;0.30;0.30;;;;;;;-143.85;100.00;70650.75;5115672;28;19953;-79
2022/08/02 08:17:56;;;;;;;0.52;0.40;;;;;;;-143.85;100.00;70650.75;5114637;28;20054;-79
2022/08/02 08:20:21;;;;;;;0.25;0.25;;;;;;;-143.85;100.00;70650.75;5115111;28;20015;-78
2022/08/02 08:22:47;;;;;;;0.80;0.80;;;;;;;-143.85;100.00;70650.75;5114376;28;20038;-78
2022/08/02 08:25:13;;;;;;;0.43;0.30;;;;;;;-143.85;100.00;70650.75;5114473;28;20029;-80
2022/08/02 08:27:47;;;;;;;0.20;0.20;;;;;;;-143.85;100.00;70650.75;5114412;28;20020;-80
2022/08/02 08:30:13;;;;;;;0.30;0.30;;;;;;;-143.85;100.00;70650.75;5114321;28;20023;-80
2022/08/02 08:32:38;;;;;;;0.30;0.30;;;;;;;-143.85;100.00;70650.75;5114342;28;20023;-80
2022/08/02 08:35:05;;;;;;;0.75;0.45;;;;;;;-143.85;100.00;70650.75;5114000;28;20020;-79
2022/08/02 08:37:38;;;;;;;0.30;0.30;;;;;;;-143.85;100.00;70650.75;5114214;28;20024;-80
2022/08/02 08:40:05;;;;;;;0.40;0.40;;;;;;;-143.85;100.00;70650.75;5114521;28;20258;-80
2022/08/02 08:42:31;;;;;;;0.63;0.47;;;;;;;-143.85;100.00;70650.75;5115368;28;20016;-79
2022/08/02 08:44:58;;;;;;;0.30;0.30;;;;;;;-143.85;100.00;70650.75;5114229;28;20031;-80
2022/08/02 08:47:32;;;;;;;0.38;0.38;;;;;;;-143.85;100.00;70650.75;5113916;28;20099;-79
2022/08/02 08:50:03;;;;;;;0.30;0.30;;;;;;;-143.85;100.00;70650.75;5114110;28;20114;-79
2022/08/02 08:52:34;;;;;;;0.30;0.30;;;;;;;-143.85;100.00;70650.75;5113951;28;20016;-79
2022/08/02 08:55:02;;;;;;;0.30;0.30;;;;;;;-143.85;100.00;70650.75;5115346;28;20156;-79
2022/08/02 08:57:30;;;;;;;0.38;0.38;;;;;;;-143.85;100.00;70650.75;5114733;28;20020;-79
2022/08/02 08:59:55;;;;;;;0.32;0.32;;;;;;;-143.85;100.00;70650.75;5113733;28;20039;-79
2022/08/02 09:02:22;;;;;;;1.10;0.63;;;;;;;-143.85;100.00;70650.75;5113643;28;20020;-79
2022/08/02 09:04:48;;;;;;;0.20;0.20;;;;;;;-143.85;100.00;70650.75;5113881;28;20020;-80
2022/08/02 09:07:13;;;;;;;0.88;0.25;;;;;;;-143.85;100.00;70650.75;5113478;28;20468;-79
2022/08/02 09:09:39;;;;;;;0.20;0.20;;;;;;;-143.85;100.00;70650.75;5113450;28;20030;-79
2022/08/02 09:12:18;;;;;;;0.30;0.30;;;;;;;-143.85;100.00;70650.75;5105402;28;20020;-78
2022/08/02 09:14:45;;;;;;;0.40;0.40;;;;;;;-143.85;100.00;70650.75;5093163;28;20020;-79
2022/08/02 09:17:13;;;;;;;0.40;0.40;;;;;;;-143.85;100.00;70650.75;5093552;28;20048;-80
2022/08/02 09:19:39;;;;;;;0.20;0.20;;;;;;;-143.85;100.00;70650.75;5092676;28;20077;-80
2022/08/02 09:22:07;;;;;;;0.80;0.40;;;;;;;-143.85;100.00;70650.75;5092920;28;20024;-80
2022/08/02 09:24:53;;;;;;;2.45;0.32;;;;;;;-143.85;100.00;70650.75;5092982;28;20012;-81
2022/08/02 09:27:21;;;;;;;3.03;0.40;;;;;;;-143.85;100.00;70650.75;5092242;28;20105;-79
2022/08/02 09:29:52;;;;;;;2.65;0.75;;;;;;;-143.85;100.00;70650.75;5092738;28;20024;-80
2022/08/02 09:32:18;;;;;;;0.47;0.32;;;;;;;-143.85;100.00;70650.75;5094440;28;20051;-80
2022/08/02 09:34:52;;;;;;;0.57;0.30;;;;;;;-143.85;100.00;70650.75;5092737;28;20016;-79
2022/08/02 09:37:28;;;;;;;0.10;0.10;;;;;;;-143.85;100.00;70650.75;5093903;28;20491;-80
2022/08/02 09:39:54;;;;;;;0.25;0.25;;;;;;;-143.85;100.00;70650.75;5092572;28;20027;-79
2022/08/02 09:42:20;;;;;;;1.23;0.30;;;;;;;-143.85;100.00;70650.75;5092507;28;20059;-79
2022/08/02 09:44:53;;;;;;;0.45;0.20;;;;;;;-143.85;100.00;70650.75;5092497;28;20385;-79
2022/08/02 09:47:19;;;;;;;0.25;0.25;;;;;;;-143.85;100.00;70650.75;5092338;28;20052;-80
2022/08/02 09:49:46;;;;;;;0.40;0.40;;;;;;;-143.85;100.00;70650.75;5092427;28;20034;-81
2022/08/02 09:52:11;;;;;;;1.15;0.32;;;;;;;-143.85;100.00;70650.75;5092192;28;20016;-80
2022/08/02 09:54:38;;;;;;;0.20;0.20;;;;;;;-143.85;100.00;70650.75;5092513;28;20020;-79
2022/08/02 09:57:04;;;;;;;0.35;0.30;;;;;;;-143.85;100.00;70650.75;5091039;28;20032;-80
2022/08/02 09:59:30;;;;;;;0.50;0.30;;;;;;;-143.85;100.00;70650.75;5090901;28;20186;-81
2022/08/02 10:01:58;;;;;;;0.30;0.30;;;;;;;-143.85;100.00;70650.75;5092106;28;20032;-80
2022/08/02 10:04:27;;;;;;;0.30;0.30;;;;;;;-143.85;100.00;70650.75;5092267;28;20020;-80
2022/08/02 10:06:53;;;;;;;0.25;0.25;;;;;;;-143.85;100.00;70650.75;5091779;28;20387;-79
2022/08/02 10:09:19;;;;;;;1.05;0.82;;;;;;;-143.85;100.00;70650.75;5092466;28;20016;-78
2022/08/02 10:11:44;;;;;;;0.38;0.38;;;;;;;-143.85;100.00;70650.75;5092412;28;20124;-78
2022/08/02 10:14:10;;;;;;;0.15;0.15;;;;;;;-143.85;100.00;70650.75;5091978;28;20471;-78
2022/08/02 10:16:42;;;;;;;0.43;0.30;;;;;;;-143.85;100.00;70650.75;5091957;28;20121;-79
2022/08/02 10:19:08;;;;;;;0.25;0.25;;;;;;;-143.85;100.00;70650.75;5092303;28;20023;-80
2022/08/02 10:21:54;;;;;;;0.90;0.43;;;;;;;-143.85;100.00;70650.75;5091799;28;20111;-80
2022/08/02 10:24:23;;;;;;;0.40;0.40;;;;;;;-143.85;100.00;70650.75;5091806;28;20032;-80
2022/08/02 10:26:49;;;;;;;0.38;0.30;;;;;;;-143.85;100.00;70650.75;5093095;28;20016;-79
2022/08/02 10:29:16;;;;;;;0.35;0.35;;;;;;;-143.85;100.00;70650.75;5091585;28;20016;-80
2022/08/02 10:31:54;;;;;;;;;;;;;;;-143.85;100.00;70650.75;5091340;28;20027;-80
2022/08/02 10:34:26;;;;;;;0.82;0.22;;;;;;;-143.85;100.00;70650.75;5093002;28;19907;-81
2022/08/02 10:36:52;;;;;;;1.02;0.63;;;;;;;-143.85;100.00;70650.75;5092941;28;20050;-79
2022/08/02 10:39:18;;;;;;;0.30;0.30;;;;;;;-143.85;100.00;70650.75;5091599;28;20035;-79
2022/08/02 10:41:51;;;;;;;0.30;0.20;;;;;;;-143.85;100.00;70650.75;5091543;28;20024;-78
2022/08/02 10:44:32;;;;;;;0.60;0.60;;;;;;;-143.85;100.00;70650.75;5091408;28;20024;-80
2022/08/02 10:47:13;;;;;;;2.45;1.70;;;;;;;-143.85;100.00;70650.75;5091143;28;20036;-78
2022/08/02 10:49:49;;;;;;;0.30;0.30;;;;;;;-143.85;100.00;70650.75;5091694;28;20403;-79
2022/08/02 10:52:17;;;;;;;0.30;0.30;;;;;;;-143.85;100.00;70650.75;5092649;28;20399;-80
2022/08/02 10:55:10;;;;;;;0.20;0.20;;;;;;;-143.85;100.00;70650.75;5091379;28;20081;-79
2022/08/02 10:57:35;;;;;;;4.93;4.05;;;;;;;-143.85;100.00;70650.75;5082761;28;20097;-78
2022/08/02 11:00:22;;;;;;;0.40;0.40;;;;;;;-143.85;100.00;70650.75;5091654;28;20024;-79
2022/08/02 11:02:48;;;;;;;0.40;0.40;;;;;;;-143.85;100.00;70650.75;5091285;28;20024;-79
2022/08/02 11:05:15;;;;;;;0.65;0.50;;;;;;;-143.85;100.00;70650.75;5091130;28;20070;-80
2022/08/02 11:07:45;;;;;;;0.50;0.50;;;;;;;-143.85;100.00;70650.75;5091228;28;20035;-80
2022/08/02 11:10:31;;;;;;;0.60;0.60;;;;;;;-143.85;100.00;70650.75;5092541;28;20475;-77
2022/08/02 11:13:18;;;;;;;0.45;0.30;;;;;;;-143.85;100.00;70650.75;5092460;28;20024;-79
2022/08/02 11:16:00;;;;;;;1.00;1.00;;;;;;;-143.85;100.00;70650.75;5092695;28;20055;-78